Terminal Aerodrome Forecast
Issued by NWS

Home | Current Version | Previous Version | Text Only | Print | Product List | Glossary On
Versions: 1 2 3 4 5 6 7 8 9 10 11 12 13 14 15 16 17 18 19 20 21 22 23 24 25 26 27 28 29 30 31 32 33 34 35 36 37 38 39
000
FTUS45 KGJT 211356 AAA
TAFEGE
TAF AMD
KEGE 211356Z 2114/2212 VRB03KT P6SM VCSH SCT040 OVC060
      TEMPO 2114/2118 5SM -SN BR BKN028 OVC040
     FM211800 23010KT 3SM -SN BR SCT020 OVC030
     FM212000 24015G25KT 4SM BR VCSH OVC020
     FM220200 25025G35KT 6SM -SN BLSN OVC015
     FM220600 26014G24KT 3SM -SN BR OVC010
      AMD LTD TO CLD VIS AND WIND TIL 211400=

USA.gov is the U.S. government's official web portal to all federal, state and local government web resources and services.